Terminal Aerodrome Forecast
Issued by NWS Corpus Christi, TX

Home | Current Version | Previous Version | Text Only | Print | Product List | Glossary On
Versions: 1 2 3 4 5 6 7 8 9 10 11 12 13 14 15 16 17
498
FTUS44 KCRP 271120
TAFVCT
TAF
KVCT 271120Z 2712/2812 05008KT P6SM VCSH SCT025 BKN035
      TEMPO 2712/2715 -TSRA BKN025CB
     FM271500 07009KT P6SM VCSH SCT025 BKN045
      TEMPO 2715/2719 -TSRA BKN025CB
     FM272000 08011KT P6SM SCT015 BKN040
     FM280100 VRB04KT P6SM SCT025 BKN150=

USA.gov is the U.S. government's official web portal to all federal, state and local government web resources and services.